createdAt,value
2022-10-13T00:01:18.363Z,8.90
2022-10-13T00:03:47.061Z,8.90
2022-10-13T00:06:16.554Z,9.00
2022-10-13T00:08:43.271Z,9.00
2022-10-13T00:11:23.691Z,9.00
2022-10-13T00:13:51.579Z,9.00
2022-10-13T00:16:20.907Z,8.90
2022-10-13T00:18:48.122Z,8.90
2022-10-13T00:21:17.155Z,8.90
2022-10-13T00:23:43.933Z,8.80
2022-10-13T00:26:14.757Z,8.80
2022-10-13T00:28:42.286Z,8.80
2022-10-13T00:31:19.456Z,8.80
2022-10-13T00:33:49.368Z,8.80
2022-10-13T00:36:21.675Z,8.80
2022-10-13T00:38:48.713Z,8.70
2022-10-13T00:41:18.568Z,8.70
2022-10-13T00:44:01.534Z,8.60
2022-10-13T00:46:36.940Z,8.60
2022-10-13T00:49:21.650Z,8.60
2022-10-13T00:51:50.159Z,8.60
2022-10-13T00:54:21.749Z,8.60
2022-10-13T00:56:50.978Z,8.60
2022-10-13T00:59:23.452Z,8.70
2022-10-13T01:01:52.515Z,8.70
2022-10-13T01:04:24.425Z,8.60
2022-10-13T01:06:54.847Z,8.60
2022-10-13T01:09:23.988Z,8.50
2022-10-13T01:12:11.712Z,8.40
2022-10-13T01:15:03.480Z,8.50
2022-10-13T01:18:08.125Z,8.40
2022-10-13T01:21:02.288Z,8.40
2022-10-13T01:23:59.368Z,8.40
2022-10-13T01:26:45.019Z,8.40
2022-10-13T01:29:42.796Z,8.40
2022-10-13T01:32:09.420Z,8.30
2022-10-13T01:34:54.882Z,8.30
2022-10-13T01:37:53.979Z,8.20
2022-10-13T01:40:44.264Z,8.10
2022-10-13T01:43:22.403Z,8.20
2022-10-13T01:45:52.818Z,8.20
2022-10-13T01:48:20.232Z,8.20
2022-10-13T01:50:50.724Z,8.10
2022-10-13T01:53:20.461Z,8.10
2022-10-13T01:55:54.849Z,8.00
2022-10-13T01:58:23.824Z,8.00
2022-10-13T02:01:09.176Z,8.00
2022-10-13T02:03:56.365Z,8.00
2022-10-13T02:06:39.411Z,8.00
2022-10-13T02:09:21.487Z,8.00
2022-10-13T02:12:07.273Z,8.10
2022-10-13T02:14:37.786Z,8.10
2022-10-13T02:17:05.575Z,8.10
2022-10-13T02:19:38.336Z,8.20
2022-10-13T02:22:09.944Z,8.20
2022-10-13T02:24:36.888Z,8.20
2022-10-13T02:27:06.006Z,8.20
2022-10-13T02:29:32.778Z,8.10
2022-10-13T02:31:59.507Z,8.10
2022-10-13T02:34:28.362Z,8.10
2022-10-13T02:36:57.221Z,8.10
2022-10-13T02:39:26.379Z,8.10
2022-10-13T02:41:53.031Z,8.20
2022-10-13T02:44:26.587Z,8.30
2022-10-13T02:46:57.896Z,8.40
2022-10-13T02:49:24.570Z,8.40
2022-10-13T02:51:53.628Z,8.50
2022-10-13T02:54:20.371Z,8.60
2022-10-13T02:56:47.077Z,8.60
2022-10-13T02:59:15.908Z,8.60
2022-10-13T03:01:45.132Z,8.60
2022-10-13T03:04:11.932Z,8.70
2022-10-13T03:06:40.738Z,8.70
2022-10-13T03:09:07.495Z,8.70
2022-10-13T03:11:36.508Z,8.80
2022-10-13T03:14:03.180Z,8.80
2022-10-13T03:16:30.074Z,8.80
2022-10-13T03:18:56.762Z,8.80
2022-10-13T03:21:26.073Z,8.80
2022-10-13T03:23:54.980Z,8.90
2022-10-13T03:26:23.995Z,8.90
2022-10-13T03:28:51.601Z,8.90
2022-10-13T03:31:19.149Z,9.00
2022-10-13T03:33:46.019Z,8.90
2022-10-13T03:36:16.132Z,9.00
2022-10-13T03:38:44.938Z,9.00
2022-10-13T03:41:14.344Z,9.10
2022-10-13T03:43:42.357Z,9.10
2022-10-13T03:46:11.702Z,9.10
2022-10-13T03:48:39.086Z,9.20
2022-10-13T03:51:10.891Z,9.20
2022-10-13T03:53:37.656Z,9.20
2022-10-13T03:56:09.935Z,9.20
2022-10-13T03:58:36.592Z,9.30
2022-10-13T04:01:06.738Z,9.30
2022-10-13T04:03:34.335Z,9.30
2022-10-13T04:06:06.517Z,9.30
2022-10-13T04:08:34.053Z,9.30
2022-10-13T04:11:01.932Z,9.30
2022-10-13T04:13:31.811Z,9.20
2022-10-13T04:16:06.458Z,9.30
2022-10-13T04:18:33.710Z,9.30
2022-10-13T04:21:00.792Z,9.40
2022-10-13T04:23:27.471Z,9.30
2022-10-13T04:25:57.359Z,9.40
2022-10-13T04:28:26.221Z,9.40
2022-10-13T04:30:55.427Z,9.40
2022-10-13T04:33:22.077Z,9.40
2022-10-13T04:35:48.776Z,9.40
2022-10-13T04:38:17.644Z,9.40
2022-10-13T04:40:44.321Z,9.40
2022-10-13T04:43:10.989Z,9.40
2022-10-13T04:45:37.752Z,9.40
2022-10-13T04:48:06.673Z,9.40
2022-10-13T04:50:35.912Z,9.40
2022-10-13T04:53:02.583Z,9.40
2022-10-13T04:55:29.286Z,9.50
2022-10-13T04:57:56.058Z,9.50
2022-10-13T05:00:22.898Z,9.50
2022-10-13T05:02:49.929Z,9.50
2022-10-13T05:05:16.661Z,9.60
2022-10-13T05:07:45.770Z,9.60
2022-10-13T05:10:12.488Z,9.50
2022-10-13T05:12:39.182Z,9.50
2022-10-13T05:15:06.400Z,9.50
2022-10-13T05:17:35.510Z,9.40
2022-10-13T05:20:02.700Z,9.40
2022-10-13T05:22:29.737Z,9.30
2022-10-13T05:24:58.919Z,9.30
2022-10-13T05:27:27.977Z,9.30
2022-10-13T05:29:55.829Z,9.30
2022-10-13T05:32:25.119Z,9.30
2022-10-13T05:34:51.874Z,9.40
2022-10-13T05:37:18.633Z,9.40
2022-10-13T05:39:48.763Z,9.40
2022-10-13T05:42:18.644Z,9.50
2022-10-13T05:44:45.588Z,9.50
2022-10-13T05:47:14.663Z,9.60
2022-10-13T05:49:43.598Z,9.60
2022-10-13T05:52:14.595Z,9.70
2022-10-13T05:54:48.564Z,9.70
2022-10-13T05:57:24.699Z,9.80
2022-10-13T05:59:59.067Z,9.80
2022-10-13T06:02:34.122Z,9.90
2022-10-13T06:05:06.181Z,9.90
2022-10-13T06:07:33.328Z,9.90
2022-10-13T06:10:01.222Z,9.90
2022-10-13T06:12:30.369Z,9.90
2022-10-13T06:14:57.099Z,9.90
2022-10-13T06:17:23.802Z,10.00
2022-10-13T06:19:50.496Z,10.10
2022-10-13T06:22:17.976Z,10.20
2022-10-13T06:24:44.977Z,10.20
2022-10-13T06:27:11.831Z,10.30
2022-10-13T06:29:38.589Z,10.40
2022-10-13T06:32:05.670Z,10.40
2022-10-13T06:34:33.417Z,10.40
2022-10-13T06:37:00.067Z,10.40
2022-10-13T06:39:29.268Z,10.50
2022-10-13T06:41:56.074Z,10.50
2022-10-13T06:44:24.953Z,10.60
2022-10-13T06:46:53.813Z,10.60
2022-10-13T06:49:23.120Z,10.70
2022-10-13T06:51:52.477Z,10.80
2022-10-13T06:54:19.191Z,10.80
2022-10-13T06:56:45.873Z,10.90
2022-10-13T06:59:12.595Z,10.90
2022-10-13T07:01:41.709Z,10.90
2022-10-13T07:04:09.229Z,11.00
2022-10-13T07:06:36.052Z,11.10
2022-10-13T07:09:07.242Z,11.30
2022-10-13T07:11:34.900Z,11.40
2022-10-13T07:16:33.316Z,11.60
2022-10-13T07:19:00.037Z,11.70
2022-10-13T07:21:26.767Z,11.80
2022-10-13T07:23:53.483Z,12.00
2022-10-13T07:26:20.560Z,12.00
2022-10-13T07:28:47.376Z,12.00
2022-10-13T07:31:21.140Z,12.10
2022-10-13T07:33:50.107Z,12.30
2022-10-13T07:36:17.563Z,12.40
2022-10-13T07:38:44.409Z,12.60
2022-10-13T07:41:12.283Z,12.70
2022-10-13T07:43:39.921Z,12.70
2022-10-13T07:46:12.356Z,12.70
2022-10-13T07:48:39.230Z,12.70
2022-10-13T07:51:12.364Z,12.70
2022-10-13T07:53:40.159Z,12.80
2022-10-13T07:56:12.016Z,12.80
2022-10-13T07:58:40.269Z,12.80
2022-10-13T08:01:08.325Z,12.80
2022-10-13T08:03:41.838Z,12.90
2022-10-13T08:06:14.302Z,12.90
2022-10-13T08:08:40.990Z,12.90
2022-10-13T08:11:16.175Z,12.90
2022-10-13T08:13:47.822Z,13.00
2022-10-13T08:16:14.527Z,13.10
2022-10-13T08:18:41.243Z,13.20
2022-10-13T08:21:39.144Z,13.40
2022-10-13T08:23:59.007Z,13.50
2022-10-13T08:26:30.643Z,13.80
2022-10-13T08:29:16.756Z,14.00
2022-10-13T08:31:44.534Z,14.20
2022-10-13T08:34:11.848Z,14.30
2022-10-13T08:36:42.682Z,14.40
2022-10-13T08:39:10.316Z,14.40
2022-10-13T08:41:43.843Z,14.50
2022-10-13T08:47:26.116Z,14.50
2022-10-13T08:50:00.673Z,14.60
2022-10-13T08:52:52.614Z,14.70
2022-10-13T08:55:35.367Z,14.80
2022-10-13T08:58:09.373Z,14.70
2022-10-13T09:00:39.877Z,14.80
2022-10-13T09:03:27.986Z,14.80
2022-10-13T09:06:32.131Z,14.70
2022-10-13T09:09:00.244Z,14.60
2022-10-13T09:11:34.051Z,14.50
2022-10-13T09:14:04.809Z,14.50
2022-10-13T09:16:38.338Z,14.40
2022-10-13T09:19:36.368Z,14.40
2022-10-13T09:22:27.905Z,14.40
2022-10-13T09:25:24.293Z,14.40
2022-10-13T09:28:00.113Z,14.40
2022-10-13T09:30:44.722Z,14.50
2022-10-13T09:33:15.314Z,14.70
2022-10-13T09:36:12.751Z,14.80
2022-10-13T09:38:44.002Z,14.90
2022-10-13T09:41:15.803Z,15.00
2022-10-13T09:43:48.391Z,15.10
2022-10-13T09:46:23.904Z,15.20
2022-10-13T09:49:21.039Z,15.20
2022-10-13T09:51:48.701Z,15.30
2022-10-13T09:54:49.921Z,15.40
2022-10-13T09:57:31.538Z,15.60
2022-10-13T10:00:04.588Z,15.80
2022-10-13T10:02:38.369Z,15.90
2022-10-13T10:05:26.011Z,16.10
2022-10-13T10:07:53.329Z,16.20
2022-10-13T10:10:40.803Z,16.20
2022-10-13T10:13:13.798Z,16.40
2022-10-13T10:15:59.276Z,16.60
2022-10-13T10:18:44.104Z,16.80
2022-10-13T10:21:41.785Z,17.00
2022-10-13T10:24:38.509Z,17.10
2022-10-13T10:29:58.464Z,17.10
2022-10-13T10:32:44.021Z,17.20
2022-10-13T10:35:29.648Z,17.40
2022-10-13T10:38:34.081Z,17.50
2022-10-13T10:41:12.632Z,17.40
2022-10-13T10:43:56.717Z,17.30
2022-10-13T10:46:27.970Z,17.20
2022-10-13T10:49:02.405Z,17.30
2022-10-13T10:51:35.362Z,17.50
2022-10-13T10:54:15.193Z,17.40
2022-10-13T10:57:08.340Z,17.30
2022-10-13T11:00:15.613Z,17.30
2022-10-13T11:02:59.311Z,17.30
2022-10-13T11:05:51.257Z,17.20
2022-10-13T11:08:29.582Z,17.20
2022-10-13T11:11:33.451Z,17.10
2022-10-13T11:14:06.060Z,17.10
2022-10-13T11:16:41.371Z,17.20
2022-10-13T11:19:08.353Z,17.20
2022-10-13T11:21:58.966Z,17.20
2022-10-13T11:24:34.980Z,17.10
2022-10-13T11:27:16.873Z,17.20
2022-10-13T11:29:46.744Z,17.10
2022-10-13T11:32:26.010Z,17.20
2022-10-13T11:35:00.616Z,17.20
2022-10-13T11:38:13.973Z,17.40
2022-10-13T11:41:01.511Z,17.60
2022-10-13T11:43:46.160Z,17.60
2022-10-13T11:46:15.846Z,17.50
2022-10-13T11:49:04.144Z,17.50
2022-10-13T11:51:36.887Z,17.60
2022-10-13T11:54:44.856Z,17.50
2022-10-13T11:57:28.314Z,17.50
2022-10-13T11:59:56.830Z,17.40
2022-10-13T12:02:28.445Z,17.50
2022-10-13T12:05:24.591Z,17.50
2022-10-13T12:07:54.292Z,17.50
2022-10-13T12:10:28.405Z,17.50
2022-10-13T12:12:55.690Z,17.50
2022-10-13T12:15:32.746Z,17.60
2022-10-13T12:37:32.652Z,18.00
2022-10-13T12:58:58.870Z,18.60
2022-10-13T13:01:25.803Z,18.70
2022-10-13T13:04:18.160Z,18.60
2022-10-13T13:07:02.438Z,18.70
2022-10-13T13:09:29.088Z,18.70
2022-10-13T13:12:11.131Z,18.60
2022-10-13T13:14:40.663Z,18.60
2022-10-13T13:17:27.661Z,18.60
2022-10-13T13:20:31.250Z,18.60
2022-10-13T13:23:00.173Z,18.50
2022-10-13T13:25:27.162Z,18.40
2022-10-13T13:27:53.913Z,18.40
2022-10-13T13:30:26.181Z,18.40
2022-10-13T13:32:53.354Z,18.40
2022-10-13T13:35:20.428Z,18.40
2022-10-13T13:37:50.674Z,18.30
2022-10-13T13:40:23.009Z,18.30
2022-10-13T13:42:49.852Z,18.20
2022-10-13T13:45:18.857Z,18.20
2022-10-13T13:51:42.561Z,18.30
2022-10-13T13:54:09.235Z,18.50
2022-10-13T13:56:36.120Z,18.40
2022-10-13T13:59:05.369Z,18.30
2022-10-13T14:01:32.386Z,18.30
2022-10-13T14:03:59.778Z,18.20
2022-10-13T14:06:26.541Z,18.10
2022-10-13T14:08:55.644Z,18.00
2022-10-13T14:11:24.570Z,18.00
2022-10-13T14:13:51.281Z,18.10
2022-10-13T14:16:18.259Z,18.10
2022-10-13T14:18:47.451Z,18.20
2022-10-13T14:21:14.362Z,18.30
2022-10-13T14:23:45.655Z,18.50
2022-10-13T14:26:12.591Z,18.50
2022-10-13T14:28:44.525Z,18.60
2022-10-13T14:31:11.683Z,18.50
2022-10-13T14:33:38.645Z,18.40
2022-10-13T14:36:08.295Z,18.30
2022-10-13T14:38:37.531Z,18.20
2022-10-13T14:41:05.658Z,18.10
2022-10-13T14:43:33.390Z,18.00
2022-10-13T14:46:05.460Z,17.90
2022-10-13T14:48:33.831Z,17.90
2022-10-13T14:51:04.914Z,17.80
2022-10-13T14:53:42.504Z,17.80
2022-10-13T14:56:22.377Z,17.70
2022-10-13T14:58:53.203Z,17.70
2022-10-13T15:01:20.881Z,17.60
2022-10-13T15:03:47.958Z,17.60
2022-10-13T15:06:17.754Z,17.50
2022-10-13T15:08:45.603Z,17.40
2022-10-13T15:11:12.734Z,17.40
2022-10-13T15:13:39.934Z,17.30
2022-10-13T15:16:07.799Z,17.20
2022-10-13T15:18:37.576Z,17.20
2022-10-13T15:21:04.486Z,17.10
2022-10-13T15:23:32.244Z,17.10
2022-10-13T15:26:01.190Z,17.00
2022-10-13T15:28:30.880Z,16.90
2022-10-13T15:30:59.834Z,16.80
2022-10-13T15:33:28.585Z,16.70
2022-10-13T15:35:56.878Z,16.60
2022-10-13T15:38:23.881Z,16.60
2022-10-13T15:40:50.812Z,16.50
2022-10-13T15:43:20.140Z,16.40
2022-10-13T15:46:00.867Z,16.30
2022-10-13T15:48:28.191Z,16.30
2022-10-13T15:50:54.876Z,16.10
2022-10-13T15:53:24.649Z,16.10
2022-10-13T15:55:56.036Z,16.10
2022-10-13T15:58:22.915Z,16.00
2022-10-13T16:00:54.257Z,15.90
2022-10-13T16:03:24.423Z,15.90
2022-10-13T16:05:51.142Z,15.90
2022-10-13T16:08:17.832Z,15.80
2022-10-13T16:10:49.477Z,15.80
2022-10-13T16:13:16.401Z,15.80
2022-10-13T16:15:43.118Z,15.70
2022-10-13T16:18:09.920Z,15.70
2022-10-13T16:20:38.848Z,15.60
2022-10-13T16:23:05.652Z,15.60
2022-10-13T16:25:32.478Z,15.50
2022-10-13T16:28:00.712Z,15.40
2022-10-13T16:30:28.274Z,15.40
2022-10-13T16:32:57.366Z,15.40
2022-10-13T16:35:26.348Z,15.40
2022-10-13T16:37:53.027Z,15.40
2022-10-13T16:40:19.713Z,15.30
2022-10-13T16:42:48.667Z,15.40
2022-10-13T16:45:15.410Z,15.50
2022-10-13T16:47:42.107Z,15.50
2022-10-13T16:50:09.641Z,15.40
2022-10-13T16:52:37.463Z,15.40
2022-10-13T16:55:05.516Z,15.40
2022-10-13T16:57:36.659Z,15.30
2022-10-13T17:00:03.951Z,15.40
2022-10-13T17:02:33.143Z,15.30
2022-10-13T17:05:02.339Z,15.30
2022-10-13T17:07:31.261Z,15.20
2022-10-13T17:09:57.996Z,15.10
2022-10-13T17:12:24.753Z,15.10
2022-10-13T17:14:53.935Z,15.00
2022-10-13T17:17:23.227Z,15.00
2022-10-13T17:19:52.446Z,14.90
2022-10-13T17:22:19.244Z,14.90
2022-10-13T17:24:49.175Z,14.90
2022-10-13T17:27:19.376Z,14.80
2022-10-13T17:29:51.858Z,14.80
2022-10-13T17:32:24.188Z,14.80
2022-10-13T17:34:55.521Z,14.80
2022-10-13T17:37:27.072Z,14.80
2022-10-13T17:39:56.382Z,14.80
2022-10-13T17:42:28.004Z,14.70
2022-10-13T17:44:57.008Z,14.70
2022-10-13T17:47:25.831Z,14.70
2022-10-13T17:49:52.567Z,14.70
2022-10-13T17:52:19.288Z,14.70
2022-10-13T17:54:46.015Z,14.60
2022-10-13T17:57:15.200Z,14.60
2022-10-13T17:59:45.404Z,14.60
2022-10-13T18:02:12.270Z,14.60
2022-10-13T18:04:39.054Z,14.60
2022-10-13T18:07:08.491Z,14.50
2022-10-13T18:09:35.452Z,14.50
2022-10-13T18:12:02.213Z,14.50
2022-10-13T18:14:33.527Z,14.40
2022-10-13T18:17:02.469Z,14.40
2022-10-13T18:19:32.845Z,14.30
2022-10-13T18:22:01.375Z,14.30
2022-10-13T18:24:31.583Z,14.20
2022-10-13T18:27:00.700Z,14.20
2022-10-13T18:29:27.513Z,14.20
2022-10-13T18:31:58.723Z,14.10
2022-10-13T18:34:25.447Z,14.10
2022-10-13T18:36:55.965Z,14.10
2022-10-13T18:39:27.849Z,14.10
2022-10-13T18:41:57.243Z,14.10
2022-10-13T18:44:25.143Z,14.10
2022-10-13T18:46:56.715Z,14.00
2022-10-13T18:49:30.944Z,14.00
2022-10-13T18:52:01.111Z,14.00
2022-10-13T18:54:29.364Z,14.00
2022-10-13T18:56:56.385Z,14.00
2022-10-13T18:59:23.415Z,14.10
2022-10-13T19:01:50.289Z,14.00
2022-10-13T19:04:21.630Z,14.00
2022-10-13T19:06:48.593Z,14.00
2022-10-13T19:09:17.320Z,14.00
2022-10-13T19:11:46.688Z,14.00
2022-10-13T19:14:16.706Z,14.00
2022-10-13T19:16:46.648Z,14.00
2022-10-13T19:19:16.184Z,13.90
2022-10-13T19:21:42.965Z,14.00
2022-10-13T19:24:10.601Z,13.90
2022-10-13T19:26:37.821Z,14.00
2022-10-13T19:29:16.493Z,14.00
2022-10-13T19:31:44.040Z,14.00
2022-10-13T19:34:12.515Z,14.00
2022-10-13T19:36:49.095Z,14.00
2022-10-13T19:39:23.583Z,14.00
2022-10-13T19:41:52.952Z,13.90
2022-10-13T19:44:20.632Z,13.90
2022-10-13T19:46:48.029Z,13.90
2022-10-13T19:49:17.646Z,13.90
2022-10-13T19:51:49.141Z,13.90
2022-10-13T19:54:17.374Z,13.90
2022-10-13T19:56:47.357Z,13.90
2022-10-13T19:59:15.043Z,13.90
2022-10-13T20:01:44.152Z,13.90
2022-10-13T20:04:11.164Z,13.90
2022-10-13T20:06:38.479Z,13.90
2022-10-13T20:09:08.574Z,13.90
2022-10-13T20:11:35.516Z,13.90
2022-10-13T20:14:07.064Z,13.90
2022-10-13T20:16:37.855Z,13.90
2022-10-13T20:19:07.809Z,13.90
2022-10-13T20:21:36.939Z,13.80
2022-10-13T20:24:08.790Z,13.80
2022-10-13T20:26:40.739Z,13.70
2022-10-13T20:29:12.344Z,13.70
2022-10-13T20:31:41.633Z,13.70
2022-10-13T20:34:12.569Z,13.70
2022-10-13T20:36:39.520Z,13.70
2022-10-13T20:39:07.724Z,13.70
2022-10-13T20:41:34.649Z,13.70
2022-10-13T20:44:08.655Z,13.80
2022-10-13T20:46:35.367Z,13.80
2022-10-13T20:49:12.996Z,13.70
2022-10-13T20:51:41.504Z,13.70
2022-10-13T20:54:11.589Z,13.70
2022-10-13T20:56:41.425Z,13.70
2022-10-13T20:59:17.108Z,13.70
2022-10-13T21:01:44.085Z,13.60
2022-10-13T21:04:15.443Z,13.60
2022-10-13T21:06:45.063Z,13.60
2022-10-13T21:09:15.040Z,13.50
2022-10-13T21:11:42.030Z,13.50
2022-10-13T21:14:09.715Z,13.50
2022-10-13T21:16:37.535Z,13.50
2022-10-13T21:19:09.231Z,13.50
2022-10-13T21:21:40.716Z,13.50
2022-10-13T21:24:08.380Z,13.50
2022-10-13T21:26:38.279Z,13.50
2022-10-13T21:29:05.185Z,13.50
2022-10-13T21:31:37.030Z,13.50
2022-10-13T21:34:09.076Z,13.40
2022-10-13T21:36:44.268Z,13.40
2022-10-13T21:39:13.703Z,13.40
2022-10-13T21:41:40.447Z,13.40
2022-10-13T21:44:09.326Z,13.40
2022-10-13T21:46:36.150Z,13.30
2022-10-13T21:49:05.173Z,13.30
2022-10-13T21:51:35.414Z,13.30
2022-10-13T21:54:09.172Z,13.30
2022-10-13T21:56:37.066Z,13.30
2022-10-13T21:59:04.577Z,13.30
2022-10-13T22:01:33.973Z,13.30
2022-10-13T22:04:04.394Z,13.40
2022-10-13T22:06:32.789Z,13.40
2022-10-13T22:09:03.536Z,13.40
2022-10-13T22:11:34.763Z,13.50
2022-10-13T22:14:01.530Z,13.50
2022-10-13T22:16:35.331Z,13.50
2022-10-13T22:19:02.224Z,13.40
2022-10-13T22:21:32.654Z,13.40
2022-10-13T22:24:03.654Z,13.30
2022-10-13T22:26:33.854Z,13.30
2022-10-13T22:29:01.957Z,13.30
2022-10-13T22:31:30.545Z,13.20
2022-10-13T22:33:59.482Z,13.20
2022-10-13T22:36:27.095Z,13.20
2022-10-13T22:38:56.369Z,13.10
2022-10-13T22:41:25.966Z,13.10
2022-10-13T22:43:55.077Z,13.00
2022-10-13T22:46:27.573Z,13.00
2022-10-13T22:48:55.083Z,13.00
2022-10-13T22:51:26.587Z,13.10
2022-10-13T22:53:56.766Z,13.10
2022-10-13T22:56:28.113Z,13.10
2022-10-13T22:59:07.310Z,13.10
2022-10-13T23:01:34.567Z,13.10
2022-10-13T23:04:01.645Z,13.10
2022-10-13T23:06:31.057Z,13.10
2022-10-13T23:09:01.745Z,13.20
2022-10-13T23:11:31.015Z,13.20
2022-10-13T23:13:58.115Z,13.20
2022-10-13T23:16:27.689Z,13.10
2022-10-13T23:18:57.052Z,13.20
2022-10-13T23:21:26.660Z,13.20
2022-10-13T23:24:14.255Z,13.20
2022-10-13T23:26:40.960Z,13.20
2022-10-13T23:29:12.733Z,13.20
2022-10-13T23:31:41.721Z,13.20
2022-10-13T23:34:10.896Z,13.10
2022-10-13T23:36:40.044Z,13.20
2022-10-13T23:39:07.161Z,13.20
2022-10-13T23:41:36.632Z,13.20
2022-10-13T23:44:05.886Z,13.20
2022-10-13T23:46:32.599Z,13.20
2022-10-13T23:49:01.661Z,13.20
2022-10-13T23:51:28.354Z,13.20
2022-10-13T23:53:55.794Z,13.20
2022-10-13T23:56:23.177Z,13.20
2022-10-13T23:58:54.603Z,13.10
